createdAt,value
2023-08-10T00:00:48.700Z,2.40
2023-08-10T00:01:48.674Z,2.70
2023-08-10T00:02:48.744Z,2.60
2023-08-10T00:03:48.703Z,2.80
2023-08-10T00:04:48.658Z,2.60
2023-08-10T00:05:48.653Z,3.00
2023-08-10T00:06:48.663Z,3.30
2023-08-10T00:07:48.642Z,3.00
2023-08-10T00:08:48.647Z,3.10
2023-08-10T00:09:48.652Z,3.40
2023-08-10T00:10:48.630Z,3.10
2023-08-10T00:11:48.645Z,3.10
2023-08-10T00:12:48.612Z,3.20
2023-08-10T00:13:48.606Z,3.20
2023-08-10T00:14:48.602Z,3.20
2023-08-10T00:15:48.586Z,2.90
2023-08-10T00:16:48.653Z,2.90
2023-08-10T00:17:48.591Z,2.80
2023-08-10T00:18:48.582Z,2.80
2023-08-10T00:19:48.569Z,2.70
2023-08-10T00:20:48.569Z,2.80
2023-08-10T00:21:48.563Z,2.30
2023-08-10T00:22:48.554Z,2.40
2023-08-10T00:23:48.544Z,2.50
2023-08-10T00:24:48.529Z,2.70
2023-08-10T00:25:48.550Z,2.50
2023-08-10T00:26:48.524Z,2.50
2023-08-10T00:27:48.516Z,2.40
2023-08-10T00:28:48.520Z,2.90
2023-08-10T00:29:48.504Z,2.50
2023-08-10T00:30:48.533Z,2.60
2023-08-10T00:31:48.487Z,2.50
2023-08-10T00:32:48.524Z,2.60
2023-08-10T00:33:48.479Z,3.00
2023-08-10T00:34:48.471Z,3.10
2023-08-10T00:35:48.481Z,3.00
2023-08-10T00:36:48.461Z,3.00
2023-08-10T00:37:48.471Z,3.30
2023-08-10T00:38:48.447Z,2.90
2023-08-10T00:39:48.441Z,3.00
2023-08-10T00:40:48.441Z,3.00
2023-08-10T00:41:48.430Z,3.00
2023-08-10T00:42:48.448Z,3.10
2023-08-10T00:43:48.424Z,3.00
2023-08-10T00:44:48.440Z,3.30
2023-08-10T00:45:48.442Z,3.40
2023-08-10T00:46:48.460Z,3.50
2023-08-10T00:47:48.423Z,3.00
2023-08-10T00:48:48.390Z,2.90
2023-08-10T00:49:48.379Z,2.90
2023-08-10T00:50:48.386Z,3.00
2023-08-10T00:51:48.364Z,2.80
2023-08-10T00:52:48.364Z,3.00
2023-08-10T00:53:48.353Z,3.10
2023-08-10T00:54:48.350Z,3.30
2023-08-10T00:55:48.338Z,3.00
2023-08-10T00:56:48.331Z,2.70
2023-08-10T00:57:48.324Z,2.70
2023-08-10T00:58:48.321Z,2.50
2023-08-10T00:59:48.321Z,2.70
2023-08-10T01:00:48.323Z,3.10
2023-08-10T01:01:48.341Z,2.50
2023-08-10T01:02:48.440Z,2.80
2023-08-10T01:03:48.385Z,2.70
2023-08-10T01:04:48.329Z,2.60
2023-08-10T01:05:48.288Z,2.90
2023-08-10T01:06:48.267Z,3.10
2023-08-10T01:07:48.274Z,3.00
2023-08-10T01:08:48.268Z,2.90
2023-08-10T01:09:48.251Z,3.10
2023-08-10T01:10:48.238Z,3.40
2023-08-10T01:11:48.240Z,3.20
2023-08-10T01:12:48.238Z,3.00
2023-08-10T01:13:48.234Z,3.10
2023-08-10T01:14:48.217Z,3.00
2023-08-10T01:15:48.221Z,2.80
2023-08-10T01:16:48.316Z,2.90
2023-08-10T01:17:48.272Z,2.70
2023-08-10T01:18:48.190Z,3.00
2023-08-10T01:19:48.183Z,2.90
2023-08-10T01:20:48.197Z,2.90
2023-08-10T01:21:48.182Z,2.70
2023-08-10T01:22:48.169Z,3.10
2023-08-10T01:23:48.173Z,3.10
2023-08-10T01:24:48.153Z,3.10
2023-08-10T01:25:48.146Z,3.10
2023-08-10T01:26:48.142Z,3.20
2023-08-10T01:27:48.150Z,2.90
2023-08-10T01:28:48.130Z,3.10
2023-08-10T01:29:48.134Z,2.80
2023-08-10T01:30:48.123Z,3.20
2023-08-10T01:31:48.180Z,2.90
2023-08-10T01:32:48.317Z,3.10
2023-08-10T01:33:48.096Z,3.10
2023-08-10T01:34:48.104Z,3.00
2023-08-10T01:35:48.090Z,2.90
2023-08-10T01:36:48.081Z,2.80
2023-08-10T01:37:48.078Z,2.80
2023-08-10T01:38:48.121Z,2.70
2023-08-10T01:39:48.054Z,3.00
2023-08-10T01:40:48.055Z,2.80
2023-08-10T01:41:48.054Z,2.90
2023-08-10T01:42:48.047Z,2.90
2023-08-10T01:43:48.035Z,2.70
2023-08-10T01:44:48.042Z,2.80
2023-08-10T01:45:48.041Z,2.60
2023-08-10T01:46:48.021Z,2.60
2023-08-10T01:47:48.030Z,2.60
2023-08-10T01:48:48.007Z,2.60
2023-08-10T01:49:48.000Z,2.70
2023-08-10T01:50:47.995Z,2.70
2023-08-10T01:51:47.990Z,2.90
2023-08-10T01:52:47.981Z,2.70
2023-08-10T01:53:47.978Z,2.80
2023-08-10T01:54:47.966Z,2.70
2023-08-10T01:55:48.036Z,2.60
2023-08-10T01:56:47.958Z,2.60
2023-08-10T01:57:47.955Z,2.60
2023-08-10T01:58:47.961Z,2.50
2023-08-10T01:59:47.941Z,2.70
2023-08-10T02:00:47.927Z,2.70
2023-08-10T02:01:47.950Z,2.40
2023-08-10T02:02:47.945Z,2.60
2023-08-10T02:03:47.922Z,2.70
2023-08-10T02:04:47.905Z,2.80
2023-08-10T02:05:47.919Z,2.90
2023-08-10T02:06:47.893Z,2.70
2023-08-10T02:07:47.895Z,2.70
2023-08-10T02:08:47.876Z,2.70
2023-08-10T02:09:47.883Z,2.70
2023-08-10T02:10:47.863Z,2.80
2023-08-10T02:11:47.859Z,2.50
2023-08-10T02:12:47.851Z,2.80
2023-08-10T02:13:47.856Z,2.40
2023-08-10T02:14:47.845Z,2.40
2023-08-10T02:15:47.932Z,2.90
2023-08-10T02:16:47.839Z,3.00
2023-08-10T02:17:47.870Z,3.30
2023-08-10T02:18:47.814Z,2.80
2023-08-10T02:19:47.805Z,2.60
2023-08-10T02:20:47.803Z,2.50
2023-08-10T02:21:47.798Z,2.60
2023-08-10T02:22:47.787Z,2.70
2023-08-10T02:23:47.788Z,2.60
2023-08-10T02:24:47.775Z,2.90
2023-08-10T02:25:47.775Z,2.90
2023-08-10T02:26:47.777Z,2.90
2023-08-10T02:27:47.804Z,3.00
2023-08-10T02:28:47.758Z,2.80
2023-08-10T02:29:47.998Z,2.60
2023-08-10T02:30:47.745Z,2.90
2023-08-10T02:31:47.752Z,2.70
2023-08-10T02:32:47.747Z,2.60
2023-08-10T02:33:47.726Z,2.60
2023-08-10T02:34:47.711Z,2.80
2023-08-10T02:35:47.708Z,2.70
2023-08-10T02:36:47.698Z,2.70
2023-08-10T02:37:47.722Z,2.50
2023-08-10T02:38:47.749Z,2.60
2023-08-10T02:39:47.687Z,2.70
2023-08-10T02:40:47.672Z,2.50
2023-08-10T02:41:47.672Z,2.60
2023-08-10T02:42:47.655Z,2.70
2023-08-10T02:43:47.653Z,2.60
2023-08-10T02:44:47.654Z,2.60
2023-08-10T02:45:47.690Z,2.60
2023-08-10T02:46:47.655Z,2.60
2023-08-10T02:47:47.631Z,2.50
2023-08-10T02:48:47.621Z,2.70
2023-08-10T02:49:47.620Z,2.70
2023-08-10T02:50:47.602Z,2.30
2023-08-10T02:51:47.599Z,2.70
2023-08-10T02:52:47.624Z,2.60
2023-08-10T02:53:47.586Z,2.40
2023-08-10T02:54:47.583Z,2.60
2023-08-10T02:55:47.577Z,2.60
2023-08-10T02:56:47.567Z,2.50
2023-08-10T02:57:47.556Z,2.60
2023-08-10T02:58:47.559Z,2.60
2023-08-10T02:59:47.544Z,2.70
2023-08-10T03:00:47.595Z,2.60
2023-08-10T03:01:47.557Z,2.40
2023-08-10T03:02:47.573Z,2.30
2023-08-10T03:03:47.525Z,2.40
2023-08-10T03:04:47.630Z,2.30
2023-08-10T03:05:47.517Z,2.30
2023-08-10T03:06:47.501Z,2.30
2023-08-10T03:07:47.496Z,2.50
2023-08-10T03:08:47.486Z,2.50
2023-08-10T03:09:47.497Z,2.40
2023-08-10T03:10:47.471Z,2.40
2023-08-10T03:11:47.469Z,2.60
2023-08-10T03:12:47.459Z,2.60
2023-08-10T03:13:47.455Z,2.40
2023-08-10T03:14:47.448Z,2.40
2023-08-10T03:15:47.457Z,2.40
2023-08-10T03:16:47.491Z,2.30
2023-08-10T03:17:47.463Z,2.40
2023-08-10T03:18:47.429Z,2.50
2023-08-10T03:19:47.413Z,2.40
2023-08-10T03:20:47.409Z,2.40
2023-08-10T03:21:47.403Z,2.20
2023-08-10T03:22:47.439Z,2.20
2023-08-10T03:23:47.385Z,2.10
2023-08-10T03:24:47.386Z,2.20
2023-08-10T03:25:47.372Z,2.20
2023-08-10T03:26:47.376Z,2.30
2023-08-10T03:27:47.425Z,2.60
2023-08-10T03:28:47.349Z,2.20
2023-08-10T03:29:47.348Z,2.30
2023-08-10T03:30:47.363Z,2.30
2023-08-10T03:31:47.338Z,2.30
2023-08-10T03:32:47.371Z,2.50
2023-08-10T03:33:48.793Z,2.30
2023-08-10T03:34:47.314Z,2.20
2023-08-10T03:35:47.310Z,2.00
2023-08-10T03:36:47.297Z,2.10
2023-08-10T03:37:47.326Z,2.40
2023-08-10T03:38:47.288Z,2.50
2023-08-10T03:39:47.288Z,2.40
2023-08-10T03:40:47.273Z,2.70
2023-08-10T03:41:47.268Z,2.60
2023-08-10T03:42:47.255Z,2.60
2023-08-10T03:43:47.254Z,2.50
2023-08-10T03:44:47.242Z,2.60
2023-08-10T03:45:47.242Z,2.20
2023-08-10T03:46:47.244Z,2.20
2023-08-10T03:47:47.259Z,2.20
2023-08-10T03:48:47.217Z,2.30
2023-08-10T03:49:47.290Z,2.30
2023-08-10T03:50:47.208Z,2.10
2023-08-10T03:51:47.202Z,2.30
2023-08-10T03:52:47.190Z,2.30
2023-08-10T03:53:47.186Z,2.40
2023-08-10T03:54:47.191Z,2.50
2023-08-10T03:55:47.175Z,2.40
2023-08-10T03:56:47.164Z,2.50
2023-08-10T03:57:47.161Z,2.30
2023-08-10T03:58:47.156Z,2.60
2023-08-10T03:59:47.150Z,2.70
2023-08-10T04:00:47.178Z,2.70
2023-08-10T04:01:47.136Z,2.70
2023-08-10T04:02:47.149Z,2.90
2023-08-10T04:03:47.135Z,3.00
2023-08-10T04:04:47.103Z,2.80
2023-08-10T04:05:47.101Z,3.00
2023-08-10T04:06:47.090Z,2.90
2023-08-10T04:07:47.085Z,3.10
2023-08-10T04:08:47.083Z,2.80
2023-08-10T04:09:47.074Z,2.60
2023-08-10T04:10:47.066Z,2.80
2023-08-10T04:11:47.065Z,2.60
2023-08-10T04:12:47.052Z,3.00
2023-08-10T04:13:47.065Z,2.70
2023-08-10T04:14:47.035Z,2.70
2023-08-10T04:15:47.031Z,2.60
2023-08-10T04:16:47.065Z,2.80
2023-08-10T04:17:47.053Z,2.60
2023-08-10T04:18:47.013Z,2.50
2023-08-10T04:19:47.003Z,2.30
2023-08-10T04:20:47.024Z,2.40
2023-08-10T04:21:47.012Z,2.60
2023-08-10T04:22:46.995Z,2.50
2023-08-10T04:23:46.982Z,2.60
2023-08-10T04:24:46.973Z,2.40
2023-08-10T04:25:46.971Z,2.40
2023-08-10T04:26:46.964Z,2.30
2023-08-10T04:27:46.946Z,2.00
2023-08-10T04:28:46.941Z,2.00
2023-08-10T04:29:46.936Z,2.10
2023-08-10T04:30:46.963Z,2.30
2023-08-10T04:31:46.914Z,2.20
2023-08-10T04:32:47.129Z,2.30
2023-08-10T04:33:46.920Z,2.30
2023-08-10T04:34:46.897Z,2.40
2023-08-10T04:35:46.898Z,2.20
2023-08-10T04:36:46.880Z,2.20
2023-08-10T04:37:46.879Z,2.30
2023-08-10T04:38:46.874Z,2.40
2023-08-10T04:39:46.865Z,2.40
2023-08-10T04:40:46.857Z,2.20
2023-08-10T04:41:46.860Z,2.40
2023-08-10T04:42:46.855Z,2.10
2023-08-10T04:43:46.834Z,2.30
2023-08-10T04:44:46.833Z,2.20
2023-08-10T04:45:46.824Z,2.00
2023-08-10T04:46:46.816Z,2.20
2023-08-10T04:47:46.838Z,2.10
2023-08-10T04:48:46.801Z,1.80
2023-08-10T04:49:46.802Z,2.00
2023-08-10T04:50:46.798Z,2.10
2023-08-10T04:51:46.782Z,1.90
2023-08-10T04:52:46.776Z,2.10
2023-08-10T04:53:46.773Z,2.10
2023-08-10T04:54:46.762Z,2.00
2023-08-10T04:55:46.760Z,2.30
2023-08-10T04:56:46.750Z,2.20
2023-08-10T04:57:46.821Z,2.40
2023-08-10T04:58:46.823Z,2.20
2023-08-10T04:59:46.733Z,2.00
2023-08-10T05:00:46.722Z,2.10
2023-08-10T05:01:46.717Z,2.10
2023-08-10T05:02:46.745Z,2.30
2023-08-10T05:03:46.760Z,4.00
2023-08-10T05:04:46.699Z,4.10
2023-08-10T05:05:46.702Z,5.10
2023-08-10T05:06:46.693Z,5.00
2023-08-10T05:07:46.682Z,2.50
2023-08-10T05:08:46.686Z,1.80
2023-08-10T05:09:56.501Z,1.80
2023-08-10T05:10:46.671Z,1.80
2023-08-10T05:11:46.663Z,2.00
2023-08-10T05:12:48.219Z,1.80
2023-08-10T05:13:46.651Z,1.80
2023-08-10T05:14:46.644Z,1.60
2023-08-10T05:15:46.711Z,1.90
2023-08-10T05:16:46.631Z,2.00
2023-08-10T05:17:46.665Z,2.00
2023-08-10T05:18:46.618Z,1.90
2023-08-10T05:19:46.620Z,2.10
2023-08-10T05:20:46.608Z,2.00
2023-08-10T05:21:46.616Z,1.90
2023-08-10T05:22:46.599Z,1.90
2023-08-10T05:23:46.594Z,1.80
2023-08-10T05:24:46.585Z,2.00
2023-08-10T05:25:46.581Z,2.00
2023-08-10T05:26:46.575Z,1.90
2023-08-10T05:27:46.570Z,2.20
2023-08-10T05:28:46.563Z,2.40
2023-08-10T05:29:46.570Z,2.00
2023-08-10T05:30:46.554Z,2.10
2023-08-10T05:31:46.609Z,1.90
2023-08-10T05:32:46.627Z,1.90
2023-08-10T05:33:46.541Z,2.20
2023-08-10T05:34:46.536Z,2.20
2023-08-10T05:35:46.528Z,2.00
2023-08-10T05:36:46.563Z,2.00
2023-08-10T05:37:46.528Z,2.00
2023-08-10T05:38:46.518Z,2.00
2023-08-10T05:39:46.521Z,1.90
2023-08-10T05:40:46.520Z,1.80
2023-08-10T05:41:46.498Z,2.20
2023-08-10T05:42:46.496Z,2.10
2023-08-10T05:43:46.497Z,2.00
2023-08-10T05:44:46.489Z,1.90
2023-08-10T05:45:46.501Z,1.90
2023-08-10T05:46:46.481Z,2.00
2023-08-10T05:47:46.566Z,2.10
2023-08-10T05:48:46.469Z,2.10
2023-08-10T05:49:46.460Z,1.90
2023-08-10T05:50:46.496Z,1.90
2023-08-10T05:51:46.452Z,1.70
2023-08-10T05:52:46.476Z,1.80
2023-08-10T05:53:46.470Z,8.00
2023-08-10T05:54:46.436Z,5.00
2023-08-10T05:55:46.451Z,5.30
2023-08-10T05:56:46.437Z,5.40
2023-08-10T05:57:46.416Z,2.40
2023-08-10T05:58:46.464Z,5.70
2023-08-10T05:59:46.417Z,2.40
2023-08-10T06:00:46.406Z,2.40
2023-08-10T06:01:46.427Z,6.10
2023-08-10T06:02:46.468Z,7.10
2023-08-10T06:03:46.421Z,10.40
2023-08-10T06:04:46.394Z,10.40
2023-08-10T06:05:46.385Z,10.10
2023-08-10T06:06:46.378Z,10.50
2023-08-10T06:07:46.377Z,5.20
2023-08-10T06:08:46.370Z,6.90
2023-08-10T06:09:46.373Z,9.30
2023-08-10T06:10:46.367Z,8.60
2023-08-10T06:11:48.415Z,5.70
2023-08-10T06:12:46.369Z,8.40
2023-08-10T06:13:46.367Z,10.50
2023-08-10T06:14:46.355Z,9.90
2023-08-10T06:15:46.418Z,9.50
2023-08-10T06:16:46.349Z,9.60
2023-08-10T06:17:46.356Z,9.80
2023-08-10T06:18:46.350Z,9.80
2023-08-10T06:19:46.351Z,10.00
2023-08-10T06:20:46.343Z,11.10
2023-08-10T06:21:46.341Z,10.70
2023-08-10T06:22:46.340Z,9.70
2023-08-10T06:23:46.334Z,9.60
2023-08-10T06:24:46.350Z,11.00
2023-08-10T06:25:46.329Z,10.80
2023-08-10T06:26:46.334Z,11.20
2023-08-10T06:27:47.173Z,10.80
2023-08-10T06:28:46.337Z,10.50
2023-08-10T06:29:46.326Z,9.90
2023-08-10T06:30:46.342Z,10.00
2023-08-10T06:31:46.353Z,9.80
2023-08-10T06:32:46.392Z,9.10
2023-08-10T06:33:46.351Z,2.70
2023-08-10T06:34:46.328Z,2.30
2023-08-10T06:35:53.570Z,2.20
2023-08-10T06:37:50.353Z,6.20
2023-08-10T06:38:50.345Z,4.00
2023-08-10T06:40:43.457Z,9.70
2023-08-10T06:41:43.449Z,9.50
2023-08-10T06:43:47.470Z,8.90
2023-08-10T06:44:47.464Z,8.80
2023-08-10T06:46:40.456Z,8.60
2023-08-10T06:47:40.407Z,8.80
2023-08-10T06:49:44.399Z,9.20
2023-08-10T06:50:44.392Z,9.50
2023-08-10T06:52:37.850Z,8.50
2023-08-10T06:53:37.850Z,8.60
2023-08-10T06:55:41.857Z,7.10
2023-08-10T06:56:41.841Z,3.40
2023-08-10T07:01:49.896Z,3.00
2023-08-10T07:02:49.930Z,2.30
2023-08-10T07:04:53.949Z,2.20
2023-08-10T07:05:53.862Z,2.80
2023-08-10T07:07:46.978Z,2.20
2023-08-10T07:08:46.964Z,2.80
2023-08-10T07:10:50.949Z,2.60
2023-08-10T07:11:50.947Z,2.90
2023-08-10T07:13:44.075Z,2.00
2023-08-10T07:14:44.059Z,1.70
2023-08-10T07:16:36.979Z,2.40
2023-08-10T07:17:37.003Z,2.50
2023-08-10T07:19:40.969Z,1.80
2023-08-10T07:20:40.955Z,1.90
2023-08-10T07:23:44.943Z,1.60
2023-08-10T07:25:48.945Z,1.90
2023-08-10T07:26:48.936Z,1.90
2023-08-10T07:28:52.950Z,1.70
2023-08-10T07:29:52.949Z,1.60
2023-08-10T07:31:56.971Z,1.80
2023-08-10T07:32:57.115Z,1.80
2023-08-10T07:34:50.078Z,1.70
2023-08-10T07:35:50.081Z,1.80
2023-08-10T07:37:54.055Z,1.60
2023-08-10T07:38:54.038Z,1.60
2023-08-10T07:40:47.154Z,1.60
2023-08-10T07:41:47.142Z,1.50
2023-08-10T07:43:40.251Z,1.70
2023-08-10T07:44:40.247Z,1.50
2023-08-10T07:46:33.209Z,2.20
2023-08-10T07:47:33.238Z,1.80
2023-08-10T07:49:37.184Z,2.40
2023-08-10T07:50:37.175Z,1.90
2023-08-10T07:52:41.185Z,1.80
2023-08-10T07:53:41.180Z,2.30
2023-08-10T07:55:45.214Z,1.50
2023-08-10T07:56:45.194Z,1.70
2023-08-10T07:58:49.183Z,1.70
2023-08-10T07:59:49.177Z,1.70
2023-08-10T08:01:53.213Z,1.70
2023-08-10T08:02:53.252Z,1.60
2023-08-10T08:04:57.241Z,1.60
2023-08-10T08:05:57.244Z,1.60
2023-08-10T08:07:50.321Z,1.50
2023-08-10T08:08:50.310Z,1.60
2023-08-10T08:10:43.424Z,1.40
2023-08-10T08:11:43.419Z,1.60
2023-08-10T08:13:47.444Z,2.10
2023-08-10T08:14:47.432Z,3.00
2023-08-10T08:16:40.367Z,1.60
2023-08-10T08:17:40.393Z,1.80
2023-08-10T08:19:44.345Z,1.60
2023-08-10T08:20:44.333Z,1.50
2023-08-10T08:22:37.451Z,1.80
2023-08-10T08:23:37.438Z,2.00
2023-08-10T08:25:41.434Z,2.80
2023-08-10T08:26:41.437Z,2.90
2023-08-10T08:28:45.469Z,2.10
2023-08-10T08:29:45.459Z,1.40
2023-08-10T08:31:49.483Z,2.50
2023-08-10T08:32:51.906Z,3.00
2023-08-10T08:34:42.596Z,2.10
2023-08-10T08:35:42.589Z,3.20
2023-08-10T08:37:46.631Z,1.50
2023-08-10T08:38:47.256Z,1.60
2023-08-10T08:40:50.659Z,1.40
2023-08-10T08:41:50.634Z,1.60
2023-08-10T08:42:50.634Z,1.50
2023-08-10T08:43:50.640Z,1.40
2023-08-10T08:44:50.637Z,1.50
2023-08-10T08:45:50.723Z,1.60
2023-08-10T08:46:50.636Z,1.30
2023-08-10T08:47:50.654Z,1.50
2023-08-10T08:48:50.626Z,1.30
2023-08-10T08:49:50.626Z,1.30
2023-08-10T08:50:50.638Z,1.60
2023-08-10T08:51:50.627Z,1.40
2023-08-10T08:52:50.670Z,1.30
2023-08-10T08:53:50.622Z,1.40
2023-08-10T08:54:50.687Z,1.40
2023-08-10T08:55:50.617Z,1.30
2023-08-10T08:56:50.616Z,1.30
2023-08-10T08:57:50.620Z,1.40
2023-08-10T08:58:50.661Z,1.50
2023-08-10T08:59:50.612Z,1.20
2023-08-10T09:00:50.612Z,1.30
2023-08-10T09:01:50.815Z,1.10
2023-08-10T09:02:50.774Z,1.40
2023-08-10T09:03:50.650Z,1.40
2023-08-10T09:04:50.604Z,1.40
2023-08-10T09:05:50.603Z,1.50
2023-08-10T09:06:50.600Z,1.20
2023-08-10T09:07:50.597Z,1.30
2023-08-10T09:08:50.598Z,1.20
2023-08-10T09:09:50.598Z,1.30
2023-08-10T09:10:50.601Z,1.20
2023-08-10T09:11:50.594Z,1.20
2023-08-10T09:12:50.592Z,1.00
2023-08-10T09:13:50.590Z,1.10
2023-08-10T09:14:50.590Z,1.10
2023-08-10T09:15:50.597Z,1.40
2023-08-10T09:16:50.585Z,1.60
2023-08-10T09:17:50.615Z,1.10
2023-08-10T09:18:50.582Z,1.90
2023-08-10T09:19:50.586Z,1.10
2023-08-10T09:20:50.583Z,1.60
2023-08-10T09:21:50.578Z,1.10
2023-08-10T09:22:50.579Z,1.10
2023-08-10T09:23:50.573Z,1.20
2023-08-10T09:24:50.591Z,1.10
2023-08-10T09:25:50.576Z,1.00
2023-08-10T09:26:50.572Z,1.30
2023-08-10T09:27:50.606Z,1.30
2023-08-10T09:28:50.628Z,1.30
2023-08-10T09:29:50.563Z,1.20
2023-08-10T09:30:50.560Z,1.10
2023-08-10T09:31:50.585Z,1.00
2023-08-10T09:32:50.588Z,1.20
2023-08-10T09:33:50.600Z,1.00
2023-08-10T09:34:50.553Z,1.10
2023-08-10T09:35:50.551Z,1.10
2023-08-10T09:36:50.548Z,1.20
2023-08-10T09:37:50.545Z,1.20
2023-08-10T09:38:50.546Z,1.10
2023-08-10T09:39:50.540Z,1.20
2023-08-10T09:40:50.565Z,1.30
2023-08-10T09:41:50.538Z,1.10
2023-08-10T09:42:50.548Z,1.30
2023-08-10T09:43:50.545Z,1.20
2023-08-10T09:44:50.533Z,1.10
2023-08-10T09:45:50.563Z,1.40
2023-08-10T09:46:50.528Z,1.10
2023-08-10T09:47:50.596Z,1.30
2023-08-10T09:48:50.636Z,1.20
2023-08-10T09:49:50.520Z,1.30
2023-08-10T09:50:50.520Z,1.10
2023-08-10T09:51:50.514Z,1.20
2023-08-10T09:52:50.532Z,1.10
2023-08-10T09:53:50.509Z,1.20
2023-08-10T09:54:50.512Z,1.20
2023-08-10T09:55:50.505Z,1.10
2023-08-10T09:56:50.503Z,1.10
2023-08-10T09:57:50.513Z,1.00
2023-08-10T09:58:50.499Z,1.10
2023-08-10T09:59:50.498Z,1.10
2023-08-10T10:00:50.545Z,1.10
2023-08-10T10:01:50.495Z,1.30
2023-08-10T10:02:50.505Z,1.20
2023-08-10T10:03:50.548Z,1.10
2023-08-10T10:04:50.504Z,1.20
2023-08-10T10:05:50.489Z,1.40
2023-08-10T10:06:50.498Z,1.20
2023-08-10T10:07:50.490Z,1.20
2023-08-10T10:08:50.490Z,1.00
2023-08-10T10:09:50.486Z,1.20
2023-08-10T10:10:50.481Z,1.20
2023-08-10T10:11:50.476Z,1.10
2023-08-10T10:12:50.472Z,1.30
2023-08-10T10:13:50.470Z,1.20
2023-08-10T10:14:50.481Z,1.30
2023-08-10T10:15:50.484Z,1.10
2023-08-10T10:16:50.462Z,1.10
2023-08-10T10:17:50.491Z,1.10
2023-08-10T10:18:50.464Z,1.10
2023-08-10T10:19:50.457Z,1.20
2023-08-10T10:20:50.471Z,1.20
2023-08-10T10:21:50.455Z,1.20
2023-08-10T10:22:50.454Z,1.10
2023-08-10T10:23:50.452Z,1.30
2023-08-10T10:24:50.453Z,1.30
2023-08-10T10:25:50.448Z,1.20
2023-08-10T10:26:50.452Z,1.00
2023-08-10T10:27:50.444Z,1.30
2023-08-10T10:28:50.442Z,1.10
2023-08-10T10:29:50.437Z,1.10
2023-08-10T10:30:50.447Z,1.20
2023-08-10T10:31:50.433Z,1.20
2023-08-10T10:32:50.500Z,1.20
2023-08-10T10:33:50.430Z,1.20
2023-08-10T10:34:50.429Z,1.40
2023-08-10T10:35:51.031Z,1.20
2023-08-10T10:36:50.425Z,1.20
2023-08-10T10:37:50.428Z,1.20
2023-08-10T10:38:50.421Z,1.20
2023-08-10T10:39:50.429Z,1.10
2023-08-10T10:40:50.418Z,1.40
2023-08-10T10:41:50.417Z,1.40
2023-08-10T10:42:50.418Z,1.10
2023-08-10T10:43:50.416Z,1.30
2023-08-10T10:44:50.412Z,1.30
2023-08-10T10:45:50.478Z,1.20
2023-08-10T10:46:50.465Z,1.10
2023-08-10T10:47:50.460Z,1.10
2023-08-10T10:48:50.406Z,1.40
2023-08-10T10:49:50.405Z,1.20
2023-08-10T10:50:50.414Z,1.40
2023-08-10T10:51:50.478Z,1.30
2023-08-10T10:52:50.451Z,1.20
2023-08-10T10:53:50.448Z,1.30
2023-08-10T10:54:50.398Z,1.30
2023-08-10T10:55:50.441Z,1.30
2023-08-10T10:56:50.395Z,1.20
2023-08-10T10:57:50.389Z,1.20
2023-08-10T10:58:50.407Z,1.10
2023-08-10T10:59:50.388Z,1.30
2023-08-10T11:00:50.436Z,1.30
2023-08-10T11:01:50.448Z,1.30
2023-08-10T11:02:50.426Z,1.30
2023-08-10T11:03:50.410Z,1.30
2023-08-10T11:04:50.378Z,1.30
2023-08-10T11:05:50.378Z,1.30
2023-08-10T11:06:50.380Z,1.30
2023-08-10T11:07:50.379Z,1.30
2023-08-10T11:08:50.374Z,1.20
2023-08-10T11:09:50.380Z,1.40
2023-08-10T11:10:50.368Z,1.40
2023-08-10T11:11:50.405Z,1.10
2023-08-10T11:12:50.742Z,1.30
2023-08-10T11:13:50.362Z,1.30
2023-08-10T11:14:50.360Z,1.30
2023-08-10T11:15:50.364Z,1.30
2023-08-10T11:16:50.385Z,1.20
2023-08-10T11:17:50.648Z,1.10
2023-08-10T11:18:50.354Z,1.10
2023-08-10T11:19:50.916Z,1.30
2023-08-10T11:20:50.351Z,1.20
2023-08-10T11:21:50.397Z,1.10
2023-08-10T11:22:50.350Z,1.20
2023-08-10T11:23:50.349Z,1.10
2023-08-10T11:24:50.351Z,1.10
2023-08-10T11:25:50.389Z,1.00
2023-08-10T11:26:50.342Z,1.10
2023-08-10T11:27:50.346Z,1.10
2023-08-10T11:28:50.347Z,1.30
2023-08-10T11:29:50.344Z,1.20
2023-08-10T11:30:50.422Z,1.10
2023-08-10T11:32:02.670Z,1.00
2023-08-10T11:32:50.354Z,1.00
2023-08-10T11:33:50.352Z,1.30
2023-08-10T11:34:50.351Z,1.20
2023-08-10T11:35:50.334Z,1.20
2023-08-10T11:36:50.326Z,1.20
2023-08-10T11:37:50.325Z,1.20
2023-08-10T11:38:50.362Z,1.30
2023-08-10T11:39:50.399Z,1.30
2023-08-10T11:40:50.333Z,1.20
2023-08-10T11:41:50.316Z,1.20
2023-08-10T11:42:50.318Z,1.10
2023-08-10T11:43:50.312Z,1.20
2023-08-10T11:44:50.312Z,1.20
2023-08-10T11:45:50.354Z,1.20
2023-08-10T11:46:50.322Z,1.30
2023-08-10T11:48:03.298Z,1.20
2023-08-10T11:48:50.308Z,1.20
2023-08-10T11:49:50.303Z,1.40
2023-08-10T11:50:50.302Z,1.10
2023-08-10T11:51:50.309Z,1.10
2023-08-10T11:52:50.299Z,1.20
2023-08-10T11:53:50.300Z,1.10
2023-08-10T11:54:50.299Z,1.10
2023-08-10T11:55:50.309Z,1.10
2023-08-10T11:56:50.293Z,1.10
2023-08-10T11:57:50.290Z,1.20
2023-08-10T11:58:50.288Z,1.40
2023-08-10T11:59:50.291Z,1.20
2023-08-10T12:00:50.284Z,1.10
2023-08-10T12:01:50.319Z,1.10
2023-08-10T12:02:50.308Z,1.10
2023-08-10T12:03:50.374Z,1.10
2023-08-10T12:04:50.297Z,1.10
2023-08-10T12:05:50.281Z,1.10
2023-08-10T12:06:50.277Z,1.30
2023-08-10T12:07:50.277Z,1.10
2023-08-10T12:08:50.270Z,1.00
2023-08-10T12:09:50.271Z,1.10
2023-08-10T12:10:50.268Z,1.10
2023-08-10T12:11:50.265Z,1.10
2023-08-10T12:12:50.264Z,1.20
2023-08-10T12:13:50.257Z,1.30
2023-08-10T12:14:50.264Z,1.20
2023-08-10T12:15:50.267Z,1.10
2023-08-10T12:16:50.267Z,1.00
2023-08-10T12:17:50.345Z,1.00
2023-08-10T12:18:50.324Z,0.90
2023-08-10T12:19:51.481Z,0.90
2023-08-10T12:20:50.248Z,1.20
2023-08-10T12:21:50.246Z,1.00
2023-08-10T12:22:50.242Z,1.00
2023-08-10T12:23:50.240Z,1.10
2023-08-10T12:24:50.237Z,1.10
2023-08-10T12:25:50.238Z,1.00
2023-08-10T12:26:52.032Z,1.10
2023-08-10T12:27:50.231Z,1.00
2023-08-10T12:29:50.257Z,1.30
2023-08-10T12:30:50.225Z,0.90
2023-08-10T12:31:50.277Z,1.10
2023-08-10T12:32:50.263Z,1.10
2023-08-10T12:33:50.221Z,1.00
2023-08-10T12:34:50.222Z,1.10
2023-08-10T12:35:50.224Z,1.00
2023-08-10T12:36:50.239Z,1.10
2023-08-10T12:37:50.214Z,1.10
2023-08-10T12:38:50.209Z,1.10
2023-08-10T12:39:50.211Z,1.00
2023-08-10T12:40:50.206Z,1.00
2023-08-10T12:41:50.205Z,1.10
2023-08-10T12:42:50.203Z,1.10
2023-08-10T12:43:50.198Z,1.10
2023-08-10T12:44:50.199Z,1.10
2023-08-10T12:45:50.261Z,1.00
2023-08-10T12:46:50.197Z,1.10
2023-08-10T12:47:50.231Z,1.00
2023-08-10T12:48:50.749Z,1.10
2023-08-10T12:49:50.200Z,1.00
2023-08-10T12:50:50.190Z,1.10
2023-08-10T12:51:50.213Z,1.20
2023-08-10T12:52:50.189Z,1.00
2023-08-10T12:53:50.182Z,1.10
2023-08-10T12:54:50.563Z,1.10
2023-08-10T12:55:50.179Z,0.90
2023-08-10T12:56:51.911Z,1.10
2023-08-10T12:57:50.182Z,1.00
2023-08-10T12:58:50.172Z,1.10
2023-08-10T12:59:50.173Z,1.10
2023-08-10T13:00:50.171Z,1.10
2023-08-10T13:01:50.186Z,1.10
2023-08-10T13:02:50.321Z,1.10
2023-08-10T13:03:50.166Z,1.00
2023-08-10T13:04:50.165Z,1.00
2023-08-10T13:05:50.195Z,0.90
2023-08-10T13:06:50.160Z,1.00
2023-08-10T13:07:50.162Z,1.00
2023-08-10T13:08:50.156Z,1.00
2023-08-10T13:09:50.171Z,1.20
2023-08-10T13:10:50.158Z,1.00
2023-08-10T13:11:50.151Z,1.00
2023-08-10T13:12:50.304Z,1.00
2023-08-10T13:13:50.154Z,1.00
2023-08-10T13:14:50.144Z,1.10
2023-08-10T13:15:50.188Z,1.00
2023-08-10T13:16:50.183Z,1.00
2023-08-10T13:17:50.173Z,1.00
2023-08-10T13:18:50.175Z,1.00
2023-08-10T13:19:50.137Z,1.10
2023-08-10T13:20:50.188Z,1.20
2023-08-10T13:21:50.215Z,1.10
2023-08-10T13:22:50.134Z,1.10
2023-08-10T13:23:50.133Z,1.10
2023-08-10T13:24:50.135Z,1.00
2023-08-10T13:25:50.146Z,0.90
2023-08-10T13:26:50.137Z,1.00
2023-08-10T13:27:50.126Z,1.00
2023-08-10T13:28:50.119Z,1.00
2023-08-10T13:29:50.137Z,1.10
2023-08-10T13:30:50.121Z,1.00
2023-08-10T13:31:50.123Z,1.10
2023-08-10T13:32:50.159Z,1.10
2023-08-10T13:33:50.137Z,1.00
2023-08-10T13:34:50.121Z,0.90
2023-08-10T13:35:50.114Z,1.00
2023-08-10T13:36:50.114Z,1.00
2023-08-10T13:37:50.112Z,1.00
2023-08-10T13:38:50.116Z,1.00
2023-08-10T13:39:50.106Z,1.00
2023-08-10T13:40:50.118Z,1.00
2023-08-10T13:41:50.105Z,1.10
2023-08-10T13:42:50.105Z,0.80
2023-08-10T13:43:50.104Z,1.20
2023-08-10T13:44:50.097Z,1.00
2023-08-10T13:45:50.176Z,0.90
2023-08-10T13:46:50.112Z,1.00
2023-08-10T13:47:50.129Z,1.00
2023-08-10T13:48:50.671Z,1.00
2023-08-10T13:49:55.361Z,1.10
2023-08-10T13:50:50.088Z,1.00
2023-08-10T13:51:50.087Z,1.00
2023-08-10T13:52:50.085Z,1.10
2023-08-10T13:53:50.085Z,1.10
2023-08-10T13:54:50.089Z,1.00
2023-08-10T13:55:50.080Z,1.00
2023-08-10T13:56:50.082Z,1.10
2023-08-10T13:57:50.078Z,1.20
2023-08-10T13:58:50.108Z,1.00
2023-08-10T13:59:50.072Z,1.00
2023-08-10T14:00:50.114Z,0.90
2023-08-10T14:01:50.070Z,1.00
2023-08-10T14:02:50.126Z,1.00
2023-08-10T14:03:50.089Z,1.10
2023-08-10T14:04:50.067Z,0.90